sensor_id;sensor_type;location;lat;lon;timestamp;pressure;altitude;pressure_sealevel;temperature;humidity
13235;BME280;6683;48.506;9.050;2023-05-29T00:02:11;98072.22;;;15.65;47.93
13235;BME280;6683;48.506;9.050;2023-05-29T00:05:15;98063.53;;;15.58;48.03
13235;BME280;6683;48.506;9.050;2023-05-29T00:08:17;98068.09;;;15.51;48.23
13235;BME280;6683;48.506;9.050;2023-05-29T00:11:20;98076.38;;;15.43;48.33
13235;BME280;6683;48.506;9.050;2023-05-29T00:14:22;98069.47;;;15.35;48.38
13235;BME280;6683;48.506;9.050;2023-05-29T00:17:24;98078.88;;;15.31;48.67
13235;BME280;6683;48.506;9.050;2023-05-29T00:20:29;98081.41;;;15.26;48.92
13235;BME280;6683;48.506;9.050;2023-05-29T00:23:34;98087.16;;;15.23;48.91
13235;BME280;6683;48.506;9.050;2023-05-29T00:26:36;98069.22;;;15.18;49.06
13235;BME280;6683;48.506;9.050;2023-05-29T00:29:39;98068.00;;;15.14;49.12
13235;BME280;6683;48.506;9.050;2023-05-29T00:32:41;98075.59;;;15.11;49.16
13235;BME280;6683;48.506;9.050;2023-05-29T00:35:45;98069.31;;;15.05;49.34
13235;BME280;6683;48.506;9.050;2023-05-29T00:38:47;98062.81;;;15.01;49.42
13235;BME280;6683;48.506;9.050;2023-05-29T00:41:50;98062.63;;;14.96;49.59
13235;BME280;6683;48.506;9.050;2023-05-29T00:44:52;98068.59;;;14.92;49.64
13235;BME280;6683;48.506;9.050;2023-05-29T00:47:55;98058.25;;;14.84;49.63
13235;BME280;6683;48.506;9.050;2023-05-29T00:50:59;98064.66;;;14.76;49.83
13235;BME280;6683;48.506;9.050;2023-05-29T00:54:02;98062.88;;;14.70;49.81
13235;BME280;6683;48.506;9.050;2023-05-29T00:57:06;98072.28;;;14.66;49.95
13235;BME280;6683;48.506;9.050;2023-05-29T01:00:10;98070.28;;;14.62;50.15
13235;BME280;6683;48.506;9.050;2023-05-29T01:03:14;98071.13;;;14.56;50.21
13235;BME280;6683;48.506;9.050;2023-05-29T01:06:19;98069.13;;;14.51;50.33
13235;BME280;6683;48.506;9.050;2023-05-29T01:09:21;98068.75;;;14.48;50.41
13235;BME280;6683;48.506;9.050;2023-05-29T01:12:36;98073.03;;;14.42;50.61
13235;BME280;6683;48.506;9.050;2023-05-29T01:15:46;98076.16;;;14.39;50.59
13235;BME280;6683;48.506;9.050;2023-05-29T01:18:57;98084.53;;;14.36;50.63
13235;BME280;6683;48.506;9.050;2023-05-29T01:22:11;98083.53;;;14.30;50.67
13235;BME280;6683;48.506;9.050;2023-05-29T01:25:21;98079.44;;;14.28;50.96
13235;BME280;6683;48.506;9.050;2023-05-29T01:28:31;98080.88;;;14.24;51.09
13235;BME280;6683;48.506;9.050;2023-05-29T01:31:35;98080.28;;;14.22;50.80
13235;BME280;6683;48.506;9.050;2023-05-29T01:34:38;98078.03;;;14.19;51.09
13235;BME280;6683;48.506;9.050;2023-05-29T01:37:40;98085.63;;;14.15;51.17
13235;BME280;6683;48.506;9.050;2023-05-29T01:40:43;98088.75;;;14.06;51.13
13235;BME280;6683;48.506;9.050;2023-05-29T01:43:48;98084.69;;;13.97;51.01
13235;BME280;6683;48.506;9.050;2023-05-29T01:46:51;98082.47;;;13.87;51.18
13235;BME280;6683;48.506;9.050;2023-05-29T01:49:55;98078.66;;;13.77;51.30
13235;BME280;6683;48.506;9.050;2023-05-29T01:52:58;98080.72;;;13.68;51.40
13235;BME280;6683;48.506;9.050;2023-05-29T01:56:01;98087.03;;;13.60;51.50
13235;BME280;6683;48.506;9.050;2023-05-29T01:59:06;98086.66;;;13.50;51.53
13235;BME280;6683;48.506;9.050;2023-05-29T02:02:09;98087.28;;;13.46;51.92
13235;BME280;6683;48.506;9.050;2023-05-29T02:05:12;98093.41;;;13.40;51.81
13235;BME280;6683;48.506;9.050;2023-05-29T02:08:16;98090.38;;;13.36;52.04
13235;BME280;6683;48.506;9.050;2023-05-29T02:11:18;98082.19;;;13.31;52.43
13235;BME280;6683;48.506;9.050;2023-05-29T02:14:22;98083.25;;;13.30;52.52
13235;BME280;6683;48.506;9.050;2023-05-29T02:17:25;98087.50;;;13.31;52.65
13235;BME280;6683;48.506;9.050;2023-05-29T02:20:28;98087.50;;;13.31;52.60
13235;BME280;6683;48.506;9.050;2023-05-29T02:23:30;98090.97;;;13.32;52.83
13235;BME280;6683;48.506;9.050;2023-05-29T02:26:33;98097.28;;;13.31;52.91
13235;BME280;6683;48.506;9.050;2023-05-29T02:29:38;98100.16;;;13.29;52.94
13235;BME280;6683;48.506;9.050;2023-05-29T02:32:41;98097.72;;;13.28;53.09
13235;BME280;6683;48.506;9.050;2023-05-29T02:35:43;98100.56;;;13.26;53.10
13235;BME280;6683;48.506;9.050;2023-05-29T02:38:46;98100.75;;;13.25;53.04
13235;BME280;6683;48.506;9.050;2023-05-29T02:41:49;98099.97;;;13.24;53.13
13235;BME280;6683;48.506;9.050;2023-05-29T02:44:53;98095.88;;;13.22;53.22
13235;BME280;6683;48.506;9.050;2023-05-29T02:47:55;98103.22;;;13.20;53.01
13235;BME280;6683;48.506;9.050;2023-05-29T02:50:58;98100.16;;;13.16;53.08
13235;BME280;6683;48.506;9.050;2023-05-29T02:54:00;98094.47;;;13.13;53.20
13235;BME280;6683;48.506;9.050;2023-05-29T02:57:03;98096.72;;;13.09;53.11
13235;BME280;6683;48.506;9.050;2023-05-29T03:00:10;98094.66;;;13.05;53.35
13235;BME280;6683;48.506;9.050;2023-05-29T03:03:13;98093.84;;;13.04;53.25
13235;BME280;6683;48.506;9.050;2023-05-29T03:06:16;98095.84;;;13.02;53.38
13235;BME280;6683;48.506;9.050;2023-05-29T03:09:18;98096.28;;;12.99;53.49
13235;BME280;6683;48.506;9.050;2023-05-29T03:12:21;98098.50;;;12.96;53.56
13235;BME280;6683;48.506;9.050;2023-05-29T03:15:25;98094.44;;;12.93;53.70
13235;BME280;6683;48.506;9.050;2023-05-29T03:18:28;98098.31;;;12.91;53.66
13235;BME280;6683;48.506;9.050;2023-05-29T03:21:30;98097.50;;;12.90;53.71
13235;BME280;6683;48.506;9.050;2023-05-29T03:24:33;98095.22;;;12.87;53.82
13235;BME280;6683;48.506;9.050;2023-05-29T03:27:36;98099.91;;;12.85;53.77
13235;BME280;6683;48.506;9.050;2023-05-29T03:30:40;98097.09;;;12.80;53.57
13235;BME280;6683;48.506;9.050;2023-05-29T03:33:43;98093.59;;;12.73;53.25
13235;BME280;6683;48.506;9.050;2023-05-29T03:36:46;98095.63;;;12.64;53.68
13235;BME280;6683;48.506;9.050;2023-05-29T03:39:49;98098.88;;;12.53;53.49
13235;BME280;6683;48.506;9.050;2023-05-29T03:42:51;98101.06;;;12.43;53.67
13235;BME280;6683;48.506;9.050;2023-05-29T03:45:55;98095.97;;;12.35;53.57
13235;BME280;6683;48.506;9.050;2023-05-29T03:48:57;98102.47;;;12.26;53.61
13235;BME280;6683;48.506;9.050;2023-05-29T03:52:00;98111.22;;;12.20;53.84
13235;BME280;6683;48.506;9.050;2023-05-29T03:55:03;98113.25;;;12.18;54.42
13235;BME280;6683;48.506;9.050;2023-05-29T03:58:06;98107.75;;;12.20;54.26
13235;BME280;6683;48.506;9.050;2023-05-29T04:01:10;98118.53;;;12.18;54.26
13235;BME280;6683;48.506;9.050;2023-05-29T04:04:13;98121.97;;;12.19;54.49
13235;BME280;6683;48.506;9.050;2023-05-29T04:07:15;98119.34;;;12.19;54.41
13235;BME280;6683;48.506;9.050;2023-05-29T04:10:19;98121.19;;;12.18;54.66
13235;BME280;6683;48.506;9.050;2023-05-29T04:13:21;98127.69;;;12.16;54.75
13235;BME280;6683;48.506;9.050;2023-05-29T04:16:25;98128.69;;;12.15;54.86
13235;BME280;6683;48.506;9.050;2023-05-29T04:19:28;98130.72;;;12.13;54.61
13235;BME280;6683;48.506;9.050;2023-05-29T04:22:31;98131.53;;;12.13;54.59
13235;BME280;6683;48.506;9.050;2023-05-29T04:25:33;98126.25;;;12.13;54.80
13235;BME280;6683;48.506;9.050;2023-05-29T04:28:37;98130.50;;;12.14;55.21
13235;BME280;6683;48.506;9.050;2023-05-29T04:31:41;98127.84;;;12.14;54.94
13235;BME280;6683;48.506;9.050;2023-05-29T04:34:44;98139.06;;;12.16;55.22
13235;BME280;6683;48.506;9.050;2023-05-29T04:37:46;98151.28;;;12.17;54.99
13235;BME280;6683;48.506;9.050;2023-05-29T04:40:48;98149.47;;;12.18;55.41
13235;BME280;6683;48.506;9.050;2023-05-29T04:43:52;98150.91;;;12.20;55.39
13235;BME280;6683;48.506;9.050;2023-05-29T04:46:57;98147.03;;;12.23;55.47
13235;BME280;6683;48.506;9.050;2023-05-29T04:50:00;98153.78;;;12.32;55.56
13235;BME280;6683;48.506;9.050;2023-05-29T04:53:03;98165.44;;;12.44;55.81
13235;BME280;6683;48.506;9.050;2023-05-29T04:56:05;98171.16;;;12.54;55.68
13235;BME280;6683;48.506;9.050;2023-05-29T04:59:08;98178.53;;;12.65;56.00
13235;BME280;6683;48.506;9.050;2023-05-29T05:02:12;98178.97;;;12.75;55.97
13235;BME280;6683;48.506;9.050;2023-05-29T05:05:14;98176.75;;;12.92;55.94
13235;BME280;6683;48.506;9.050;2023-05-29T05:08:17;98180.06;;;13.07;55.78
13235;BME280;6683;48.506;9.050;2023-05-29T05:11:20;98181.53;;;13.22;55.92
13235;BME280;6683;48.506;9.050;2023-05-29T05:14:22;98176.22;;;13.35;55.77
13235;BME280;6683;48.506;9.050;2023-05-29T05:17:26;98179.25;;;13.52;55.85
13235;BME280;6683;48.506;9.050;2023-05-29T05:20:28;98183.94;;;13.70;56.01
13235;BME280;6683;48.506;9.050;2023-05-29T05:23:31;98179.41;;;13.90;56.10
13235;BME280;6683;48.506;9.050;2023-05-29T05:26:34;98170.19;;;14.12;56.03
13235;BME280;6683;48.506;9.050;2023-05-29T05:29:36;98169.94;;;14.33;55.89
13235;BME280;6683;48.506;9.050;2023-05-29T05:32:41;98170.88;;;14.52;56.03
13235;BME280;6683;48.506;9.050;2023-05-29T05:35:43;98182.56;;;14.75;56.05
13235;BME280;6683;48.506;9.050;2023-05-29T05:38:46;98175.47;;;15.00;55.89
13235;BME280;6683;48.506;9.050;2023-05-29T05:41:48;98172.69;;;15.20;55.83
13235;BME280;6683;48.506;9.050;2023-05-29T05:44:51;98177.84;;;15.40;55.62
13235;BME280;6683;48.506;9.050;2023-05-29T05:47:56;98177.13;;;15.57;55.53
13235;BME280;6683;48.506;9.050;2023-05-29T05:50:58;98177.38;;;15.74;55.25
13235;BME280;6683;48.506;9.050;2023-05-29T05:54:01;98176.00;;;15.89;55.04
13235;BME280;6683;48.506;9.050;2023-05-29T05:57:03;98181.56;;;16.06;54.76
13235;BME280;6683;48.506;9.050;2023-05-29T06:00:08;98183.38;;;16.24;54.74
13235;BME280;6683;48.506;9.050;2023-05-29T06:03:13;98179.31;;;16.39;54.51
13235;BME280;6683;48.506;9.050;2023-05-29T06:06:16;98177.69;;;16.56;54.40
13235;BME280;6683;48.506;9.050;2023-05-29T06:09:19;98177.88;;;16.73;54.00
13235;BME280;6683;48.506;9.050;2023-05-29T06:12:21;98187.34;;;16.87;53.71
13235;BME280;6683;48.506;9.050;2023-05-29T06:15:23;98182.84;;;16.99;53.42
13235;BME280;6683;48.506;9.050;2023-05-29T06:18:27;98190.88;;;17.11;53.22
13235;BME280;6683;48.506;9.050;2023-05-29T06:21:29;98185.81;;;17.21;53.19
13235;BME280;6683;48.506;9.050;2023-05-29T06:24:32;98182.13;;;17.33;52.93
13235;BME280;6683;48.506;9.050;2023-05-29T06:27:35;98184.56;;;17.46;52.76
13235;BME280;6683;48.506;9.050;2023-05-29T06:30:39;98179.16;;;17.53;52.18
13235;BME280;6683;48.506;9.050;2023-05-29T06:33:43;98181.47;;;17.61;52.25
13235;BME280;6683;48.506;9.050;2023-05-29T06:36:46;98183.47;;;17.77;52.17
13235;BME280;6683;48.506;9.050;2023-05-29T06:39:48;98193.22;;;17.95;52.21
13235;BME280;6683;48.506;9.050;2023-05-29T06:42:51;98181.81;;;18.11;51.94
13235;BME280;6683;48.506;9.050;2023-05-29T06:45:53;98184.56;;;18.27;51.61
13235;BME280;6683;48.506;9.050;2023-05-29T06:48:57;98176.66;;;18.44;51.64
13235;BME280;6683;48.506;9.050;2023-05-29T06:51:59;98182.41;;;18.64;51.32
13235;BME280;6683;48.506;9.050;2023-05-29T06:55:03;98185.03;;;18.76;51.09
13235;BME280;6683;48.506;9.050;2023-05-29T06:58:05;98183.38;;;18.86;50.93
13235;BME280;6683;48.506;9.050;2023-05-29T07:01:07;98182.25;;;18.99;50.53
13235;BME280;6683;48.506;9.050;2023-05-29T07:04:13;98180.13;;;19.12;50.46
13235;BME280;6683;48.506;9.050;2023-05-29T07:07:16;98177.94;;;19.26;49.98
13235;BME280;6683;48.506;9.050;2023-05-29T07:10:18;98179.59;;;19.44;49.66
13235;BME280;6683;48.506;9.050;2023-05-29T07:13:21;98186.34;;;19.63;49.23
13235;BME280;6683;48.506;9.050;2023-05-29T07:16:23;98183.41;;;19.81;48.62
13235;BME280;6683;48.506;9.050;2023-05-29T07:19:27;98189.28;;;20.00;48.48
13235;BME280;6683;48.506;9.050;2023-05-29T07:22:30;98190.06;;;20.17;48.19
13235;BME280;6683;48.506;9.050;2023-05-29T07:25:32;98188.19;;;20.34;48.08
13235;BME280;6683;48.506;9.050;2023-05-29T07:28:34;98183.88;;;20.54;47.91
13235;BME280;6683;48.506;9.050;2023-05-29T07:31:37;98183.63;;;20.78;47.87
13235;BME280;6683;48.506;9.050;2023-05-29T07:34:43;98188.22;;;21.04;47.42
13235;BME280;6683;48.506;9.050;2023-05-29T07:37:45;98184.69;;;21.30;47.33
13235;BME280;6683;48.506;9.050;2023-05-29T07:40:48;98188.13;;;21.57;47.18
13235;BME280;6683;48.506;9.050;2023-05-29T07:43:51;98181.13;;;21.83;46.54
13235;BME280;6683;48.506;9.050;2023-05-29T07:46:53;98194.44;;;22.04;46.41
13235;BME280;6683;48.506;9.050;2023-05-29T07:49:57;98189.44;;;22.28;46.17
13235;BME280;6683;48.506;9.050;2023-05-29T07:52:59;98187.16;;;22.52;45.67
13235;BME280;6683;48.506;9.050;2023-05-29T07:56:02;98184.53;;;22.72;45.54
13235;BME280;6683;48.506;9.050;2023-05-29T07:59:04;98188.63;;;22.84;45.12
13235;BME280;6683;48.506;9.050;2023-05-29T08:02:07;98182.22;;;23.00;44.95
13235;BME280;6683;48.506;9.050;2023-05-29T08:05:12;98187.09;;;23.19;44.85
13235;BME280;6683;48.506;9.050;2023-05-29T08:08:15;98187.94;;;23.39;44.21
13235;BME280;6683;48.506;9.050;2023-05-29T08:11:17;98178.78;;;23.60;43.85
13235;BME280;6683;48.506;9.050;2023-05-29T08:14:20;98185.50;;;23.83;43.75
13235;BME280;6683;48.506;9.050;2023-05-29T08:17:22;98175.28;;;24.05;43.14
13235;BME280;6683;48.506;9.050;2023-05-29T08:20:26;98177.34;;;24.28;42.70
13235;BME280;6683;48.506;9.050;2023-05-29T08:23:28;98165.69;;;24.48;42.34
13235;BME280;6683;48.506;9.050;2023-05-29T08:26:32;98159.66;;;24.66;41.80
13235;BME280;6683;48.506;9.050;2023-05-29T08:29:34;98160.13;;;24.83;41.15
13235;BME280;6683;48.506;9.050;2023-05-29T08:32:37;98157.59;;;25.02;40.68
13235;BME280;6683;48.506;9.050;2023-05-29T08:35:41;98168.00;;;25.23;40.18
13235;BME280;6683;48.506;9.050;2023-05-29T08:38:44;98163.25;;;25.44;40.01
13235;BME280;6683;48.506;9.050;2023-05-29T08:41:56;98163.16;;;25.59;39.45
13235;BME280;6683;48.506;9.050;2023-05-29T08:45:03;98166.50;;;25.75;39.10
13235;BME280;6683;48.506;9.050;2023-05-29T08:48:07;98169.06;;;25.90;38.42
13235;BME280;6683;48.506;9.050;2023-05-29T08:51:13;98158.44;;;25.98;38.37
13235;BME280;6683;48.506;9.050;2023-05-29T08:54:16;98157.34;;;25.99;38.19
13235;BME280;6683;48.506;9.050;2023-05-29T08:57:19;98159.16;;;26.09;37.99
13235;BME280;6683;48.506;9.050;2023-05-29T09:00:21;98163.59;;;26.24;38.16
13235;BME280;6683;48.506;9.050;2023-05-29T09:03:29;98161.28;;;26.36;37.67
13235;BME280;6683;48.506;9.050;2023-05-29T09:06:33;98148.63;;;26.55;37.35
13235;BME280;6683;48.506;9.050;2023-05-29T09:09:35;98151.69;;;26.72;37.31
13235;BME280;6683;48.506;9.050;2023-05-29T09:12:38;98160.38;;;26.87;36.41
13235;BME280;6683;48.506;9.050;2023-05-29T09:15:41;98142.59;;;27.00;35.93
13235;BME280;6683;48.506;9.050;2023-05-29T09:18:44;98149.19;;;27.13;36.10
13235;BME280;6683;48.506;9.050;2023-05-29T09:21:48;98140.50;;;27.29;35.91
13235;BME280;6683;48.506;9.050;2023-05-29T09:24:51;98146.75;;;27.48;35.41
13235;BME280;6683;48.506;9.050;2023-05-29T09:27:56;98132.63;;;27.65;34.98
13235;BME280;6683;48.506;9.050;2023-05-29T09:30:58;98141.00;;;27.82;34.72
13235;BME280;6683;48.506;9.050;2023-05-29T09:34:02;98136.69;;;27.95;33.92
13235;BME280;6683;48.506;9.050;2023-05-29T09:37:08;98140.06;;;28.05;33.92
13235;BME280;6683;48.506;9.050;2023-05-29T09:40:12;98143.41;;;28.16;33.76
13235;BME280;6683;48.506;9.050;2023-05-29T09:43:16;98133.63;;;28.28;33.18
13235;BME280;6683;48.506;9.050;2023-05-29T09:46:20;98141.97;;;28.45;32.68
13235;BME280;6683;48.506;9.050;2023-05-29T09:49:23;98148.00;;;28.56;32.56
13235;BME280;6683;48.506;9.050;2023-05-29T09:52:29;98149.41;;;28.67;31.86
13235;BME280;6683;48.506;9.050;2023-05-29T09:55:33;98135.00;;;28.80;32.00
13235;BME280;6683;48.506;9.050;2023-05-29T09:58:37;98138.31;;;28.91;32.18
13235;BME280;6683;48.506;9.050;2023-05-29T10:01:46;98137.44;;;29.04;32.03
13235;BME280;6683;48.506;9.050;2023-05-29T10:04:49;98135.28;;;29.14;31.21
13235;BME280;6683;48.506;9.050;2023-05-29T10:07:54;98134.63;;;29.23;30.79
13235;BME280;6683;48.506;9.050;2023-05-29T10:11:00;98143.13;;;29.30;30.97
13235;BME280;6683;48.506;9.050;2023-05-29T10:14:06;98152.50;;;29.46;30.47
13235;BME280;6683;48.506;9.050;2023-05-29T10:17:12;98143.63;;;29.54;29.92
13235;BME280;6683;48.506;9.050;2023-05-29T10:20:18;98135.00;;;29.60;29.70
13235;BME280;6683;48.506;9.050;2023-05-29T10:23:25;98141.25;;;29.61;29.29
13235;BME280;6683;48.506;9.050;2023-05-29T10:26:30;98127.53;;;29.66;29.45
13235;BME280;6683;48.506;9.050;2023-05-29T10:29:39;98127.78;;;29.78;29.16
13235;BME280;6683;48.506;9.050;2023-05-29T10:33:01;98138.34;;;29.79;28.61
13235;BME280;6683;48.506;9.050;2023-05-29T10:36:12;98130.56;;;29.86;28.54
13235;BME280;6683;48.506;9.050;2023-05-29T10:39:17;98132.03;;;29.92;28.01
13235;BME280;6683;48.506;9.050;2023-05-29T10:42:43;98127.13;;;30.03;27.94
13235;BME280;6683;48.506;9.050;2023-05-29T10:45:49;98123.00;;;30.14;27.48
13235;BME280;6683;48.506;9.050;2023-05-29T10:48:55;98124.16;;;30.22;26.79
13235;BME280;6683;48.506;9.050;2023-05-29T10:51:58;98130.47;;;30.31;26.98
13235;BME280;6683;48.506;9.050;2023-05-29T10:55:03;98125.19;;;30.43;26.65
13235;BME280;6683;48.506;9.050;2023-05-29T10:58:06;98121.06;;;30.54;26.32
13235;BME280;6683;48.506;9.050;2023-05-29T11:01:09;98111.28;;;30.61;25.95
13235;BME280;6683;48.506;9.050;2023-05-29T11:04:28;98107.44;;;30.62;25.79
13235;BME280;6683;48.506;9.050;2023-05-29T11:07:33;98116.28;;;30.76;25.84
13235;BME280;6683;48.506;9.050;2023-05-29T11:10:57;98115.69;;;30.97;25.60
13235;BME280;6683;48.506;9.050;2023-05-29T11:14:03;98112.31;;;31.17;25.28
13235;BME280;6683;48.506;9.050;2023-05-29T11:17:06;98109.75;;;31.37;25.13
13235;BME280;6683;48.506;9.050;2023-05-29T11:20:23;98113.13;;;31.51;24.77
13235;BME280;6683;48.506;9.050;2023-05-29T11:23:31;98101.16;;;31.73;24.44
13235;BME280;6683;48.506;9.050;2023-05-29T11:26:37;98097.25;;;31.91;23.83
13235;BME280;6683;48.506;9.050;2023-05-29T11:29:40;98101.88;;;32.08;23.70
13235;BME280;6683;48.506;9.050;2023-05-29T11:32:45;98105.69;;;32.15;23.15
13235;BME280;6683;48.506;9.050;2023-05-29T11:35:52;98100.56;;;32.14;23.04
13235;BME280;6683;48.506;9.050;2023-05-29T11:38:57;98098.22;;;32.04;22.89
13235;BME280;6683;48.506;9.050;2023-05-29T11:42:02;98087.66;;;31.94;22.41
13235;BME280;6683;48.506;9.050;2023-05-29T11:45:15;98097.44;;;31.86;22.12
13235;BME280;6683;48.506;9.050;2023-05-29T11:48:17;98090.38;;;31.85;22.36
13235;BME280;6683;48.506;9.050;2023-05-29T11:51:20;98099.22;;;31.82;22.59
13235;BME280;6683;48.506;9.050;2023-05-29T11:54:23;98092.94;;;31.82;22.25
13235;BME280;6683;48.506;9.050;2023-05-29T11:57:27;98092.97;;;31.73;22.31
13235;BME280;6683;48.506;9.050;2023-05-29T12:00:32;98080.97;;;31.66;22.17
13235;BME280;6683;48.506;9.050;2023-05-29T12:03:39;98086.91;;;31.59;21.88
13235;BME280;6683;48.506;9.050;2023-05-29T12:06:41;98092.09;;;31.52;21.73
13235;BME280;6683;48.506;9.050;2023-05-29T12:09:43;98096.28;;;31.49;21.93
13235;BME280;6683;48.506;9.050;2023-05-29T12:13:02;98089.69;;;31.42;21.87
13235;BME280;6683;48.506;9.050;2023-05-29T12:16:08;98088.69;;;31.38;21.97
13235;BME280;6683;48.506;9.050;2023-05-29T12:19:10;98089.38;;;31.35;21.56
13235;BME280;6683;48.506;9.050;2023-05-29T12:22:13;98087.25;;;31.32;21.37
13235;BME280;6683;48.506;9.050;2023-05-29T12:25:19;98088.06;;;31.32;21.04
13235;BME280;6683;48.506;9.050;2023-05-29T12:28:23;98089.38;;;31.35;20.94
13235;BME280;6683;48.506;9.050;2023-05-29T12:31:29;98075.06;;;31.29;21.47
13235;BME280;6683;48.506;9.050;2023-05-29T12:34:34;98081.53;;;31.25;21.63
13235;BME280;6683;48.506;9.050;2023-05-29T12:37:45;98086.78;;;31.21;21.15
13235;BME280;6683;48.506;9.050;2023-05-29T12:40:48;98079.09;;;31.23;21.42
13235;BME280;6683;48.506;9.050;2023-05-29T12:43:55;98081.00;;;31.31;21.58
13235;BME280;6683;48.506;9.050;2023-05-29T12:46:58;98078.28;;;31.40;21.08
13235;BME280;6683;48.506;9.050;2023-05-29T12:50:17;98078.94;;;31.45;20.96
13235;BME280;6683;48.506;9.050;2023-05-29T12:53:21;98094.34;;;31.50;21.25
13235;BME280;6683;48.506;9.050;2023-05-29T12:56:24;98088.38;;;31.48;20.95
13235;BME280;6683;48.506;9.050;2023-05-29T12:59:28;98089.53;;;31.47;20.93
13235;BME280;6683;48.506;9.050;2023-05-29T13:02:31;98096.09;;;31.46;21.00
13235;BME280;6683;48.506;9.050;2023-05-29T13:05:33;98079.56;;;31.51;21.22
13235;BME280;6683;48.506;9.050;2023-05-29T13:08:36;98081.47;;;31.59;21.00
13235;BME280;6683;48.506;9.050;2023-05-29T13:11:38;98088.81;;;31.67;20.81
13235;BME280;6683;48.506;9.050;2023-05-29T13:14:42;98088.50;;;31.69;20.46
13235;BME280;6683;48.506;9.050;2023-05-29T13:17:44;98082.41;;;31.63;20.65
13235;BME280;6683;48.506;9.050;2023-05-29T13:20:47;98080.66;;;31.59;20.67
13235;BME280;6683;48.506;9.050;2023-05-29T13:23:50;98076.66;;;31.56;20.69
13235;BME280;6683;48.506;9.050;2023-05-29T13:26:52;98083.09;;;31.51;20.38
13235;BME280;6683;48.506;9.050;2023-05-29T13:29:56;98091.44;;;31.46;20.38
13235;BME280;6683;48.506;9.050;2023-05-29T13:32:58;98083.44;;;31.41;20.44
13235;BME280;6683;48.506;9.050;2023-05-29T13:36:02;98085.50;;;31.36;20.36
13235;BME280;6683;48.506;9.050;2023-05-29T13:39:04;98085.00;;;31.34;20.21
13235;BME280;6683;48.506;9.050;2023-05-29T13:42:08;98092.38;;;31.33;20.25
13235;BME280;6683;48.506;9.050;2023-05-29T13:45:12;98075.72;;;31.35;19.68
13235;BME280;6683;48.506;9.050;2023-05-29T13:48:15;98081.47;;;31.33;19.45
13235;BME280;6683;48.506;9.050;2023-05-29T13:51:17;98076.69;;;31.30;18.69
13235;BME280;6683;48.506;9.050;2023-05-29T13:54:19;98076.53;;;31.27;18.83
13235;BME280;6683;48.506;9.050;2023-05-29T13:57:22;98072.19;;;31.26;18.88
13235;BME280;6683;48.506;9.050;2023-05-29T14:00:26;98075.41;;;31.28;18.46
13235;BME280;6683;48.506;9.050;2023-05-29T14:03:29;98076.03;;;31.33;18.83
13235;BME280;6683;48.506;9.050;2023-05-29T14:06:33;98064.00;;;31.34;18.61
13235;BME280;6683;48.506;9.050;2023-05-29T14:09:37;98061.75;;;31.36;18.68
13235;BME280;6683;48.506;9.050;2023-05-29T14:12:40;98066.41;;;31.36;18.50
13235;BME280;6683;48.506;9.050;2023-05-29T14:15:43;98066.88;;;31.38;18.54
13235;BME280;6683;48.506;9.050;2023-05-29T14:18:46;98059.19;;;31.40;18.76
13235;BME280;6683;48.506;9.050;2023-05-29T14:21:50;98048.28;;;31.40;18.61
13235;BME280;6683;48.506;9.050;2023-05-29T14:24:53;98055.34;;;31.41;18.55
13235;BME280;6683;48.506;9.050;2023-05-29T14:27:56;98047.50;;;31.39;18.24
13235;BME280;6683;48.506;9.050;2023-05-29T14:31:00;98054.19;;;31.33;18.08
13235;BME280;6683;48.506;9.050;2023-05-29T14:34:03;98058.41;;;31.22;18.13
13235;BME280;6683;48.506;9.050;2023-05-29T14:37:06;98052.31;;;31.17;18.19
13235;BME280;6683;48.506;9.050;2023-05-29T14:40:09;98062.44;;;31.08;18.19
13235;BME280;6683;48.506;9.050;2023-05-29T14:43:11;98067.25;;;31.02;18.21
13235;BME280;6683;48.506;9.050;2023-05-29T14:46:16;98057.16;;;30.94;18.63
13235;BME280;6683;48.506;9.050;2023-05-29T14:49:18;98055.03;;;30.83;18.30
13235;BME280;6683;48.506;9.050;2023-05-29T14:52:22;98048.63;;;30.70;18.06
13235;BME280;6683;48.506;9.050;2023-05-29T14:55:25;98052.31;;;30.57;18.16
13235;BME280;6683;48.506;9.050;2023-05-29T14:58:27;98053.44;;;30.47;18.04
13235;BME280;6683;48.506;9.050;2023-05-29T15:01:30;98051.63;;;30.34;18.02
13235;BME280;6683;48.506;9.050;2023-05-29T15:04:33;98052.72;;;30.25;17.97
13235;BME280;6683;48.506;9.050;2023-05-29T15:07:35;98041.31;;;30.14;18.12
13235;BME280;6683;48.506;9.050;2023-05-29T15:10:38;98046.09;;;30.09;18.17
13235;BME280;6683;48.506;9.050;2023-05-29T15:13:40;98057.44;;;30.02;18.56
13235;BME280;6683;48.506;9.050;2023-05-29T15:16:44;98049.75;;;29.95;18.44
13235;BME280;6683;48.506;9.050;2023-05-29T15:19:47;98043.94;;;29.88;18.29
13235;BME280;6683;48.506;9.050;2023-05-29T15:22:50;98046.81;;;29.83;18.39
13235;BME280;6683;48.506;9.050;2023-05-29T15:25:52;98043.91;;;29.80;18.58
13235;BME280;6683;48.506;9.050;2023-05-29T15:28:55;98039.59;;;29.79;18.53
13235;BME280;6683;48.506;9.050;2023-05-29T15:31:59;98030.75;;;29.73;18.42
13235;BME280;6683;48.506;9.050;2023-05-29T15:35:02;98033.47;;;29.73;18.53
13235;BME280;6683;48.506;9.050;2023-05-29T15:38:04;98025.31;;;29.73;18.69
13235;BME280;6683;48.506;9.050;2023-05-29T15:41:07;98027.59;;;29.80;18.45
13235;BME280;6683;48.506;9.050;2023-05-29T15:44:09;98032.09;;;29.84;18.63
13235;BME280;6683;48.506;9.050;2023-05-29T15:47:13;98028.09;;;29.90;18.25
13235;BME280;6683;48.506;9.050;2023-05-29T15:50:16;98032.44;;;29.91;18.22
13235;BME280;6683;48.506;9.050;2023-05-29T15:53:18;98026.34;;;29.94;18.15
13235;BME280;6683;48.506;9.050;2023-05-29T15:56:21;98026.53;;;29.98;18.11
13235;BME280;6683;48.506;9.050;2023-05-29T15:59:28;98021.88;;;29.98;18.12
13235;BME280;6683;48.506;9.050;2023-05-29T16:02:32;98011.97;;;30.02;18.32
13235;BME280;6683;48.506;9.050;2023-05-29T16:05:35;98011.63;;;30.04;18.29
13235;BME280;6683;48.506;9.050;2023-05-29T16:08:37;98008.91;;;30.04;17.87
13235;BME280;6683;48.506;9.050;2023-05-29T16:11:41;98009.09;;;30.08;17.74
13235;BME280;6683;48.506;9.050;2023-05-29T16:14:44;98006.06;;;30.09;17.90
13235;BME280;6683;48.506;9.050;2023-05-29T16:17:48;98003.50;;;30.13;18.10
13235;BME280;6683;48.506;9.050;2023-05-29T16:20:51;98009.13;;;30.16;17.96
13235;BME280;6683;48.506;9.050;2023-05-29T16:23:54;98009.59;;;30.18;17.88
13235;BME280;6683;48.506;9.050;2023-05-29T16:26:59;98004.66;;;30.20;17.95